Time;durP1;ratioP1;P1;durP2;ratioP2;P2;SDS_P1;SDS_P2;PMS_P1;PMS_P2;Temp;Humidity;BMP_temperature;BMP_pressure;BME280_temperature;BME280_humidity;BME280_pressure;Samples;Min_cycle;Max_cycle;Signal;HPM_P1;HPM_P2
2021/06/26 00:02:26;;;;;;;36.03;28.17;;;;;;;;;;5116122;28;20446;-67
2021/06/26 00:04:54;;;;;;;33.17;28.40;;;;;;;;;;5116797;28;20530;-70
2021/06/26 00:07:21;;;;;;;32.70;27.40;;;;;;;;;;5116465;28;20481;-67
2021/06/26 00:09:48;;;;;;;35.50;26.87;;;;;;;;;;5116302;28;20474;-68
2021/06/26 00:12:17;;;;;;;32.97;27.30;;;;;;;;;;5116510;28;20439;-67
2021/06/26 00:14:45;;;;;;;35.13;27.00;;;;;;;;;;5116443;28;20522;-69
2021/06/26 00:17:12;;;;;;;33.47;28.30;;;;;;;;;;5115529;28;20949;-68
2021/06/26 00:19:39;;;;;;;35.90;29.20;;;;;;;;;;5116308;28;20547;-68
2021/06/26 00:22:07;;;;;;;39.53;28.13;;;;;;;;;;5115783;28;20465;-67
2021/06/26 00:24:34;;;;;;;32.40;28.13;;;;;;;;;;5116392;28;20449;-67
2021/06/26 00:27:01;;;;;;;34.27;28.27;;;;;;;;;;5116347;28;20452;-67
2021/06/26 00:29:30;;;;;;;33.03;27.67;;;;;;;;;;5116286;28;20435;-67
2021/06/26 00:31:57;;;;;;;32.70;27.67;;;;;;;;;;5115619;28;20452;-68
2021/06/26 00:34:24;;;;;;;30.47;27.10;;;;;;;;;;5115542;28;20966;-68
2021/06/26 00:36:52;;;;;;;34.47;27.90;;;;;;;;;;5115335;28;20510;-68
2021/06/26 00:39:19;;;;;;;31.70;27.60;;;;;;;;;;5115836;28;20446;-67
2021/06/26 00:41:46;;;;;;;36.67;26.97;;;;;;;;;;5115399;28;20435;-67
2021/06/26 00:44:14;;;;;;;32.30;26.10;;;;;;;;;;5115289;28;20439;-67
2021/06/26 00:46:43;;;;;;;35.97;27.80;;;;;;;;;;5115566;28;20447;-67
2021/06/26 00:49:10;;;;;;;32.43;26.93;;;;;;;;;;5115184;28;20941;-68
2021/06/26 00:51:38;;;;;;;34.20;26.67;;;;;;;;;;5115512;28;20435;-67
2021/06/26 00:54:05;;;;;;;27.40;24.47;;;;;;;;;;5115452;28;20442;-67
2021/06/26 00:56:32;;;;;;;30.80;27.47;;;;;;;;;;5115653;28;20446;-68
2021/06/26 00:59:00;;;;;;;31.30;26.50;;;;;;;;;;5115050;28;20445;-68
2021/06/26 01:01:28;;;;;;;33.33;26.63;;;;;;;;;;5115280;28;20530;-68
2021/06/26 01:03:56;;;;;;;32.00;26.83;;;;;;;;;;5115463;28;20566;-68
2021/06/26 01:06:23;;;;;;;30.40;25.23;;;;;;;;;;5114747;28;20526;-67
2021/06/26 01:08:51;;;;;;;31.07;26.03;;;;;;;;;;5115155;28;20526;-67
2021/06/26 01:11:18;;;;;;;32.30;24.80;;;;;;;;;;5114973;28;20472;-68
2021/06/26 01:13:45;;;;;;;38.53;26.20;;;;;;;;;;5115147;28;20554;-67
2021/06/26 01:16:12;;;;;;;31.73;25.67;;;;;;;;;;5114621;28;20450;-67
2021/06/26 01:18:39;;;;;;;30.30;24.60;;;;;;;;;;5114442;28;20505;-67
2021/06/26 01:21:08;;;;;;;30.30;25.37;;;;;;;;;;5114517;28;20766;-67
2021/06/26 01:23:45;;;;;;;31.03;26.50;;;;;;;;;;5114406;28;20535;-67
2021/06/26 01:26:12;;;;;;;31.70;26.40;;;;;;;;;;5114388;28;20489;-69
2021/06/26 01:28:40;;;;;;;34.57;24.40;;;;;;;;;;5114648;28;20535;-68
2021/06/26 01:31:07;;;;;;;37.17;25.57;;;;;;;;;;5114304;28;20504;-66
2021/06/26 01:33:34;;;;;;;31.60;25.43;;;;;;;;;;5114063;28;20435;-67
2021/06/26 01:36:02;;;;;;;30.90;25.47;;;;;;;;;;5114434;28;20447;-67
2021/06/26 01:38:29;;;;;;;33.50;25.90;;;;;;;;;;5114088;28;20508;-67
2021/06/26 01:40:57;;;;;;;31.13;25.47;;;;;;;;;;5114822;28;20446;-68
2021/06/26 01:43:25;;;;;;;32.47;26.40;;;;;;;;;;5114396;28;20439;-67
2021/06/26 01:45:52;;;;;;;34.30;27.50;;;;;;;;;;5114342;28;20941;-67
2021/06/26 01:48:19;;;;;;;30.30;26.60;;;;;;;;;;5114449;28;20526;-68
2021/06/26 01:50:46;;;;;;;28.17;25.17;;;;;;;;;;5113915;28;20436;-68
2021/06/26 01:53:17;;;;;;;31.97;26.77;;;;;;;;;;5114034;28;21015;-67
2021/06/26 01:55:44;;;;;;;31.70;27.00;;;;;;;;;;5114146;28;20981;-67
2021/06/26 01:58:12;;;;;;;32.10;27.23;;;;;;;;;;5113750;28;20998;-68
2021/06/26 02:00:39;;;;;;;28.40;24.90;;;;;;;;;;5113791;28;20527;-67
2021/06/26 02:03:07;;;;;;;31.77;27.10;;;;;;;;;;5113788;28;20445;-67
2021/06/26 02:05:34;;;;;;;35.40;28.13;;;;;;;;;;5114470;28;20440;-66
2021/06/26 02:08:01;;;;;;;33.60;27.70;;;;;;;;;;5114022;28;20451;-68
2021/06/26 02:10:29;;;;;;;35.67;25.57;;;;;;;;;;5114180;28;20431;-68
2021/06/26 02:12:56;;;;;;;33.47;28.53;;;;;;;;;;5113882;28;20439;-68
2021/06/26 02:15:25;;;;;;;30.57;26.40;;;;;;;;;;5113520;28;20443;-68
2021/06/26 02:17:52;;;;;;;34.80;29.13;;;;;;;;;;5113927;28;20498;-67
2021/06/26 02:20:19;;;;;;;31.47;26.90;;;;;;;;;;5113867;28;20852;-67
2021/06/26 02:22:47;;;;;;;34.23;27.47;;;;;;;;;;5114073;28;20479;-67
2021/06/26 02:25:15;;;;;;;32.40;27.37;;;;;;;;;;5113668;28;20439;-67
2021/06/26 02:27:42;;;;;;;30.70;26.70;;;;;;;;;;5113757;28;21004;-67
2021/06/26 02:30:10;;;;;;;32.83;28.30;;;;;;;;;;5113388;28;20929;-67
2021/06/26 02:32:39;;;;;;;34.63;26.57;;;;;;;;;;5095394;28;20451;-67
2021/06/26 02:35:07;;;;;;;32.93;28.53;;;;;;;;;;5113466;28;20471;-67
2021/06/26 02:37:34;;;;;;;34.73;27.20;;;;;;;;;;5113554;28;20976;-67
2021/06/26 02:40:01;;;;;;;38.10;31.07;;;;;;;;;;5113784;28;20844;-67
2021/06/26 02:42:28;;;;;;;32.27;27.50;;;;;;;;;;5113190;28;20939;-67
2021/06/26 02:44:56;;;;;;;29.87;26.30;;;;;;;;;;5113981;28;20438;-67
2021/06/26 02:47:23;;;;;;;38.97;30.27;;;;;;;;;;5117913;28;20916;-67
2021/06/26 02:49:52;;;;;;;35.70;28.87;;;;;;;;;;5117671;28;20517;-67
2021/06/26 02:52:19;;;;;;;33.83;29.20;;;;;;;;;;5117257;28;20453;-67
2021/06/26 02:54:46;;;;;;;35.57;27.20;;;;;;;;;;5117558;28;20441;-67
2021/06/26 02:57:14;;;;;;;35.00;27.57;;;;;;;;;;5118174;28;20434;-67
2021/06/26 02:59:44;;;;;;;33.43;28.50;;;;;;;;;;5117475;28;20438;-67
2021/06/26 03:02:11;;;;;;;39.00;30.53;;;;;;;;;;5117414;28;20443;-68
2021/06/26 03:04:38;;;;;;;34.87;29.97;;;;;;;;;;5117353;28;20443;-68
2021/06/26 03:07:06;;;;;;;34.97;31.17;;;;;;;;;;5117235;28;20958;-67
2021/06/26 03:09:34;;;;;;;37.00;28.33;;;;;;;;;;5117778;28;20465;-68
2021/06/26 03:12:01;;;;;;;34.57;30.27;;;;;;;;;;5117473;28;20445;-67
2021/06/26 03:14:28;;;;;;;43.50;29.80;;;;;;;;;;5117218;28;20439;-67
2021/06/26 03:16:55;;;;;;;35.93;30.10;;;;;;;;;;5117157;28;20471;-68
2021/06/26 03:19:22;;;;;;;41.13;29.63;;;;;;;;;;5117114;28;20474;-67
2021/06/26 03:21:49;;;;;;;36.97;29.80;;;;;;;;;;5116570;28;20442;-67
2021/06/26 03:24:18;;;;;;;33.40;29.67;;;;;;;;;;5117053;28;20466;-67
2021/06/26 03:26:45;;;;;;;35.43;29.90;;;;;;;;;;5116946;28;20438;-67
2021/06/26 03:29:12;;;;;;;41.60;32.80;;;;;;;;;;5116486;28;20456;-67
2021/06/26 03:31:40;;;;;;;41.10;31.67;;;;;;;;;;5116853;28;20438;-67
2021/06/26 03:34:07;;;;;;;40.20;30.60;;;;;;;;;;5116846;28;20444;-67
2021/06/26 03:36:34;;;;;;;33.57;28.83;;;;;;;;;;5116680;28;20446;-67
2021/06/26 03:39:01;;;;;;;36.00;30.07;;;;;;;;;;5116566;28;20500;-66
2021/06/26 03:41:30;;;;;;;39.80;30.40;;;;;;;;;;5116659;28;20442;-67
2021/06/26 03:43:59;;;;;;;36.60;29.90;;;;;;;;;;5116707;28;20435;-67
2021/06/26 03:46:26;;;;;;;37.47;31.33;;;;;;;;;;5116825;28;20454;-67
2021/06/26 03:48:53;;;;;;;38.10;30.40;;;;;;;;;;5116527;28;20526;-67
2021/06/26 03:51:21;;;;;;;40.17;32.13;;;;;;;;;;5116430;28;20442;-67
2021/06/26 03:53:49;;;;;;;38.13;31.10;;;;;;;;;;5116156;28;20437;-67
2021/06/26 03:56:16;;;;;;;40.00;31.03;;;;;;;;;;5115963;28;20932;-67
2021/06/26 03:58:45;;;;;;;38.23;30.20;;;;;;;;;;5115921;28;20478;-67
2021/06/26 04:01:12;;;;;;;37.87;31.70;;;;;;;;;;5115964;28;20443;-68
2021/06/26 04:03:39;;;;;;;38.30;31.03;;;;;;;;;;5115967;28;20443;-68
2021/06/26 04:06:06;;;;;;;38.23;32.60;;;;;;;;;;5116211;28;20932;-68
2021/06/26 04:08:34;;;;;;;38.50;31.43;;;;;;;;;;5115755;28;20958;-67
2021/06/26 04:11:01;;;;;;;37.63;30.70;;;;;;;;;;5116264;28;20534;-68
2021/06/26 04:13:28;;;;;;;42.60;34.13;;;;;;;;;;5116320;28;20439;-67
2021/06/26 04:15:57;;;;;;;37.67;31.40;;;;;;;;;;5115942;28;20443;-67
2021/06/26 04:18:25;;;;;;;37.23;33.10;;;;;;;;;;5116644;28;20485;-68
2021/06/26 04:20:52;;;;;;;36.83;32.43;;;;;;;;;;5115917;28;20439;-68
2021/06/26 04:23:19;;;;;;;37.07;30.17;;;;;;;;;;5116018;28;20516;-68
2021/06/26 04:25:48;;;;;;;38.57;33.27;;;;;;;;;;5115523;28;20454;-69
2021/06/26 04:28:15;;;;;;;40.90;31.60;;;;;;;;;;5115817;28;20783;-68
2021/06/26 04:30:43;;;;;;;36.50;30.87;;;;;;;;;;5115866;28;20435;-68
2021/06/26 04:33:12;;;;;;;52.57;32.90;;;;;;;;;;5115405;28;20434;-68
2021/06/26 04:35:39;;;;;;;36.87;32.00;;;;;;;;;;5135286;27;20471;-68
2021/06/26 04:38:06;;;;;;;38.10;32.50;;;;;;;;;;5135986;27;20475;-68
2021/06/26 04:40:34;;;;;;;38.97;32.40;;;;;;;;;;5136011;27;20923;-68
2021/06/26 04:43:01;;;;;;;39.10;32.33;;;;;;;;;;5136075;27;20461;-69
2021/06/26 04:45:28;;;;;;;36.97;32.10;;;;;;;;;;5136065;27;20444;-69
2021/06/26 04:48:00;;;;;;;42.40;33.47;;;;;;;;;;5136353;27;20493;-68
2021/06/26 04:50:29;;;;;;;41.43;32.63;;;;;;;;;;5136758;27;20435;-69
2021/06/26 04:52:56;;;;;;;38.30;31.87;;;;;;;;;;5135736;27;20465;-68
2021/06/26 04:55:23;;;;;;;39.83;33.10;;;;;;;;;;5135751;27;20452;-69
2021/06/26 04:57:50;;;;;;;41.80;32.63;;;;;;;;;;5135375;27;20433;-68
2021/06/26 05:00:18;;;;;;;40.53;34.00;;;;;;;;;;5135348;27;20528;-67
2021/06/26 05:02:45;;;;;;;39.13;32.53;;;;;;;;;;5135916;27;20430;-67
2021/06/26 05:05:13;;;;;;;40.73;32.83;;;;;;;;;;5117787;27;20439;-67
2021/06/26 05:07:42;;;;;;;39.53;30.37;;;;;;;;;;5114515;28;20435;-67
2021/06/26 05:10:10;;;;;;;42.17;34.30;;;;;;;;;;5113942;28;20438;-68
2021/06/26 05:12:37;;;;;;;42.93;34.47;;;;;;;;;;5114893;28;20518;-67
2021/06/26 05:15:04;;;;;;;50.23;32.30;;;;;;;;;;5115255;28;20439;-67
2021/06/26 05:17:31;;;;;;;48.97;35.57;;;;;;;;;;5114660;28;20475;-68
2021/06/26 05:19:58;;;;;;;44.27;34.50;;;;;;;;;;5114869;28;20569;-67
2021/06/26 05:22:26;;;;;;;42.60;36.10;;;;;;;;;;5114857;28;20442;-68
2021/06/26 05:24:54;;;;;;;40.97;36.17;;;;;;;;;;5114604;28;20439;-68
2021/06/26 05:27:21;;;;;;;52.07;36.50;;;;;;;;;;5114178;28;20446;-66
2021/06/26 05:29:49;;;;;;;39.97;34.57;;;;;;;;;;5114523;28;20526;-67
2021/06/26 05:32:16;;;;;;;45.70;37.77;;;;;;;;;;5114410;28;20443;-68
2021/06/26 05:34:43;;;;;;;45.05;39.38;;;;;;;;;;5113471;28;20506;-67
2021/06/26 05:37:10;;;;;;;44.53;37.33;;;;;;;;;;5114438;28;20194;-67
2021/06/26 05:39:38;;;;;;;44.57;34.80;;;;;;;;;;5113963;28;21055;-67
2021/06/26 05:42:07;;;;;;;47.30;36.67;;;;;;;;;;5114335;28;20470;-67
2021/06/26 05:44:34;;;;;;;42.63;35.17;;;;;;;;;;5114264;28;20447;-67
2021/06/26 05:47:01;;;;;;;45.60;36.87;;;;;;;;;;5114428;28;20447;-67
2021/06/26 05:49:28;;;;;;;45.17;35.93;;;;;;;;;;5114153;28;20439;-68
2021/06/26 05:51:56;;;;;;;47.80;35.97;;;;;;;;;;5114656;28;20452;-68
2021/06/26 05:54:23;;;;;;;44.50;36.13;;;;;;;;;;5114137;28;20443;-68
2021/06/26 05:56:50;;;;;;;42.90;35.00;;;;;;;;;;5113673;28;20928;-68
2021/06/26 05:59:19;;;;;;;43.33;36.63;;;;;;;;;;5114055;28;20482;-68
2021/06/26 06:01:46;;;;;;;41.20;36.27;;;;;;;;;;5114284;28;20466;-67
2021/06/26 06:04:13;;;;;;;47.20;34.43;;;;;;;;;;5113988;28;20446;-67
2021/06/26 06:06:40;;;;;;;43.90;35.10;;;;;;;;;;5114063;28;20447;-67
2021/06/26 06:09:08;;;;;;;43.07;36.60;;;;;;;;;;5114360;28;20436;-67
2021/06/26 06:11:36;;;;;;;46.47;38.00;;;;;;;;;;5113656;28;20449;-68
2021/06/26 06:14:03;;;;;;;50.83;37.40;;;;;;;;;;5114037;28;20436;-68
2021/06/26 06:16:32;;;;;;;43.53;32.70;;;;;;;;;;5113616;28;20486;-68
2021/06/26 06:18:59;;;;;;;44.63;35.40;;;;;;;;;;5114129;28;20471;-68
2021/06/26 06:21:26;;;;;;;44.50;35.73;;;;;;;;;;5113205;28;20448;-67
2021/06/26 06:23:53;;;;;;;48.50;37.53;;;;;;;;;;5113883;28;20798;-68
2021/06/26 06:26:20;;;;;;;37.87;32.20;;;;;;;;;;5113823;28;20440;-68
2021/06/26 06:28:48;;;;;;;46.40;36.53;;;;;;;;;;5114162;28;20447;-68
2021/06/26 06:31:16;;;;;;;36.77;31.30;;;;;;;;;;5114291;28;20441;-68
2021/06/26 06:33:44;;;;;;;40.60;34.67;;;;;;;;;;5113854;28;20868;-68
2021/06/26 06:36:11;;;;;;;40.40;33.90;;;;;;;;;;5114300;28;20437;-68
2021/06/26 06:38:38;;;;;;;41.87;34.00;;;;;;;;;;5114022;28;20474;-67
2021/06/26 06:41:06;;;;;;;42.47;34.33;;;;;;;;;;5114097;28;20452;-68
2021/06/26 06:43:33;;;;;;;38.50;34.30;;;;;;;;;;5113663;28;20537;-67
2021/06/26 06:46:03;;;;;;;40.27;32.07;;;;;;;;;;5113846;28;20457;-67
2021/06/26 06:48:30;;;;;;;44.73;34.00;;;;;;;;;;5114126;28;20435;-67
2021/06/26 06:50:59;;;;;;;36.73;32.07;;;;;;;;;;5113653;28;20448;-68
2021/06/26 06:53:26;;;;;;;39.90;31.30;;;;;;;;;;5113823;28;20462;-68
2021/06/26 06:55:57;;;;;;;37.40;33.40;;;;;;;;;;5113707;28;20448;-68
2021/06/26 06:58:25;;;;;;;36.63;30.27;;;;;;;;;;5114210;28;20437;-68
2021/06/26 07:00:52;;;;;;;38.10;32.43;;;;;;;;;;5113168;28;20528;-68
2021/06/26 07:03:19;;;;;;;38.33;30.03;;;;;;;;;;5113083;28;20997;-68
2021/06/26 07:05:47;;;;;;;40.80;33.57;;;;;;;;;;5113729;28;20524;-68
2021/06/26 07:08:15;;;;;;;43.23;32.90;;;;;;;;;;5113173;28;20456;-67
2021/06/26 07:10:43;;;;;;;36.03;30.20;;;;;;;;;;5113942;28;20533;-67
2021/06/26 07:13:11;;;;;;;39.27;28.63;;;;;;;;;;5114246;28;20442;-67
2021/06/26 07:15:38;;;;;;;31.03;26.43;;;;;;;;;;5113393;28;20477;-68
2021/06/26 07:18:05;;;;;;;31.07;26.13;;;;;;;;;;5113686;28;20884;-68
2021/06/26 07:20:32;;;;;;;30.70;24.57;;;;;;;;;;5113263;28;20477;-68
2021/06/26 07:23:00;;;;;;;27.10;24.13;;;;;;;;;;5113854;28;20441;-68
2021/06/26 07:25:29;;;;;;;28.60;25.00;;;;;;;;;;5113189;28;20436;-68
2021/06/26 07:27:56;;;;;;;30.23;27.00;;;;;;;;;;5113058;28;20444;-68
2021/06/26 07:30:23;;;;;;;30.50;24.97;;;;;;;;;;5112924;28;20540;-67
2021/06/26 07:32:50;;;;;;;27.33;24.43;;;;;;;;;;5115038;28;20548;-68
2021/06/26 07:35:18;;;;;;;27.67;23.80;;;;;;;;;;5116877;27;20521;-68
2021/06/26 07:37:45;;;;;;;30.43;25.57;;;;;;;;;;5116437;28;20528;-69
2021/06/26 07:40:14;;;;;;;30.90;24.50;;;;;;;;;;5116396;28;20473;-69
2021/06/26 07:42:42;;;;;;;29.00;23.23;;;;;;;;;;5116789;28;20522;-68
2021/06/26 07:45:10;;;;;;;28.57;23.90;;;;;;;;;;5116623;28;20441;-68
2021/06/26 07:47:37;;;;;;;29.23;22.03;;;;;;;;;;5116833;28;20444;-67
2021/06/26 07:50:05;;;;;;;25.23;22.30;;;;;;;;;;5116619;28;20442;-68
2021/06/26 07:52:33;;;;;;;24.77;22.17;;;;;;;;;;5116329;28;20511;-67
2021/06/26 07:55:00;;;;;;;24.30;21.70;;;;;;;;;;5116298;28;20457;-67
2021/06/26 07:57:27;;;;;;;24.50;21.90;;;;;;;;;;5116273;28;20446;-68
2021/06/26 07:59:56;;;;;;;27.00;21.00;;;;;;;;;;5116511;28;20631;-68
2021/06/26 08:02:23;;;;;;;24.03;20.60;;;;;;;;;;5116209;28;20931;-68
2021/06/26 08:04:50;;;;;;;23.07;20.50;;;;;;;;;;5116108;28;20442;-68
2021/06/26 08:07:17;;;;;;;22.10;19.77;;;;;;;;;;5116375;28;20875;-68
2021/06/26 08:09:45;;;;;;;23.47;20.90;;;;;;;;;;5116371;28;20762;-68
2021/06/26 08:12:15;;;;;;;22.13;19.77;;;;;;;;;;5116267;28;20492;-68
2021/06/26 08:14:46;;;;;;;23.00;20.50;;;;;;;;;;5115916;28;20450;-68
2021/06/26 08:17:15;;;;;;;23.40;18.60;;;;;;;;;;5116352;28;20481;-68
2021/06/26 08:19:46;;;;;;;25.70;21.70;;;;;;;;;;5116295;28;20482;-68
2021/06/26 08:22:14;;;;;;;23.70;20.37;;;;;;;;;;5115810;28;20509;-68
2021/06/26 08:24:41;;;;;;;23.93;20.40;;;;;;;;;;5115761;28;20450;-67
2021/06/26 08:27:09;;;;;;;20.40;17.83;;;;;;;;;;5116014;28;20498;-68
2021/06/26 08:29:37;;;;;;;23.23;19.40;;;;;;;;;;5116006;28;20817;-68
2021/06/26 08:32:04;;;;;;;22.53;18.50;;;;;;;;;;5115595;28;20446;-68
2021/06/26 08:34:33;;;;;;;21.27;19.07;;;;;;;;;;5115948;28;20439;-68
2021/06/26 08:37:00;;;;;;;23.60;19.97;;;;;;;;;;5115866;28;20451;-68
2021/06/26 08:39:27;;;;;;;21.63;17.43;;;;;;;;;;5115952;28;20482;-68
2021/06/26 08:41:55;;;;;;;21.57;19.43;;;;;;;;;;5115513;28;20470;-68
2021/06/26 08:44:22;;;;;;;20.63;18.60;;;;;;;;;;5115150;28;20530;-68
2021/06/26 08:46:50;;;;;;;20.00;16.90;;;;;;;;;;5115354;28;20541;-68
2021/06/26 08:49:18;;;;;;;20.83;16.73;;;;;;;;;;5115229;28;20940;-68
2021/06/26 08:51:46;;;;;;;20.00;17.07;;;;;;;;;;5115150;28;20535;-68
2021/06/26 08:54:14;;;;;;;19.63;15.53;;;;;;;;;;5115075;28;20467;-72
2021/06/26 08:56:42;;;;;;;17.27;15.47;;;;;;;;;;5115460;28;20443;-68
2021/06/26 08:59:10;;;;;;;20.17;15.20;;;;;;;;;;5115030;28;20525;-68
2021/06/26 09:01:37;;;;;;;16.63;14.67;;;;;;;;;;5115237;28;20438;-69
2021/06/26 09:04:06;;;;;;;17.53;15.83;;;;;;;;;;5114966;28;20839;-69
2021/06/26 09:06:35;;;;;;;19.80;15.87;;;;;;;;;;5115182;28;20447;-69
2021/06/26 09:09:04;;;;;;;15.83;14.20;;;;;;;;;;5115152;28;20446;-68
2021/06/26 09:11:31;;;;;;;20.70;16.50;;;;;;;;;;5115147;28;20439;-69
2021/06/26 09:13:58;;;;;;;17.40;15.60;;;;;;;;;;5114985;28;20436;-68
2021/06/26 09:16:25;;;;;;;18.57;16.77;;;;;;;;;;5120850;27;20454;-68
2021/06/26 09:18:54;;;;;;;17.60;15.90;;;;;;;;;;5135101;27;20922;-69
2021/06/26 09:21:26;;;;;;;19.50;16.63;;;;;;;;;;5129320;27;20516;-69
2021/06/26 09:24:01;;;;;;;21.07;14.50;;;;;;;;;;5114515;28;20440;-69
2021/06/26 09:26:29;;;;;;;16.23;14.73;;;;;;;;;;5114731;28;20448;-68
2021/06/26 09:28:56;;;;;;;16.37;14.67;;;;;;;;;;5114715;28;20434;-70
2021/06/26 09:31:24;;;;;;;16.90;15.07;;;;;;;;;;5114713;28;20477;-69
2021/06/26 09:33:59;;;;;;;18.57;16.60;;;;;;;;;;5114390;28;20952;-68
2021/06/26 09:36:27;;;;;;;22.27;16.87;;;;;;;;;;5114263;28;20452;-70
2021/06/26 09:38:59;;;;;;;17.40;15.70;;;;;;;;;;5114606;28;20939;-67
2021/06/26 09:41:36;;;;;;;17.97;16.07;;;;;;;;;;5114088;28;20558;-68
2021/06/26 09:44:10;;;;;;;19.40;17.30;;;;;;;;;;5114843;28;20446;-68
2021/06/26 09:46:47;;;;;;;19.40;17.30;;;;;;;;;;5114505;28;20444;-69
2021/06/26 09:49:14;;;;;;;18.17;16.30;;;;;;;;;;5113983;28;20505;-68
2021/06/26 09:51:42;;;;;;;21.00;18.23;;;;;;;;;;5114104;28;20936;-68
2021/06/26 09:54:10;;;;;;;20.83;18.63;;;;;;;;;;5113995;28;20935;-69
2021/06/26 09:56:46;;;;;;;21.40;19.23;;;;;;;;;;5113560;28;20479;-69
2021/06/26 09:59:14;;;;;;;21.00;18.63;;;;;;;;;;5114506;28;20428;-68
2021/06/26 10:01:42;;;;;;;21.93;19.60;;;;;;;;;;5113957;28;20995;-68
2021/06/26 10:04:12;;;;;;;21.87;18.97;;;;;;;;;;5114629;28;20445;-68
2021/06/26 10:06:40;;;;;;;20.83;18.00;;;;;;;;;;5114393;28;20492;-68
2021/06/26 10:09:08;;;;;;;21.10;19.00;;;;;;;;;;5114085;28;20439;-68
2021/06/26 10:11:35;;;;;;;21.83;19.00;;;;;;;;;;5114348;28;20443;-68
2021/06/26 10:14:06;;;;;;;18.60;16.80;;;;;;;;;;5113705;28;20431;-68
2021/06/26 10:16:33;;;;;;;20.50;18.30;;;;;;;;;;5113714;28;20479;-68
2021/06/26 10:19:01;;;;;;;19.20;17.30;;;;;;;;;;5114355;28;20606;-68
2021/06/26 10:21:29;;;;;;;18.57;16.63;;;;;;;;;;5114281;28;20487;-68
2021/06/26 10:23:57;;;;;;;17.50;15.77;;;;;;;;;;5113906;28;20440;-68
2021/06/26 10:26:24;;;;;;;17.53;15.80;;;;;;;;;;5113881;28;20432;-68
2021/06/26 10:28:53;;;;;;;18.90;16.10;;;;;;;;;;5114375;28;20770;-69
2021/06/26 10:31:30;;;;;;;19.47;17.67;;;;;;;;;;5113539;28;20505;-68
2021/06/26 10:34:08;;;;;;;23.30;16.77;;;;;;;;;;5113545;28;20466;-68
2021/06/26 10:36:36;;;;;;;22.03;17.10;;;;;;;;;;5114082;28;20476;-68
2021/06/26 10:39:04;;;;;;;19.13;15.60;;;;;;;;;;5113395;28;20432;-68
2021/06/26 10:41:31;;;;;;;17.53;15.83;;;;;;;;;;5114150;28;20561;-68
2021/06/26 10:43:59;;;;;;;18.13;15.67;;;;;;;;;;5113421;28;20435;-68
2021/06/26 10:46:27;;;;;;;20.00;18.10;;;;;;;;;;5113669;28;20858;-68
2021/06/26 10:49:01;;;;;;;20.37;18.17;;;;;;;;;;5113790;28;20526;-68
2021/06/26 10:51:32;;;;;;;21.60;17.33;;;;;;;;;;5114077;28;20536;-68
2021/06/26 10:54:09;;;;;;;19.97;18.07;;;;;;;;;;5113665;28;20449;-68
2021/06/26 10:56:36;;;;;;;16.97;15.20;;;;;;;;;;5113975;28;20427;-68
2021/06/26 10:59:09;;;;;;;14.70;13.10;;;;;;;;;;5113809;28;20448;-68
2021/06/26 11:01:36;;;;;;;20.20;14.70;;;;;;;;;;5113127;28;20515;-68
2021/06/26 11:04:10;;;;;;;15.43;14.13;;;;;;;;;;5113164;28;20935;-68
2021/06/26 11:06:38;;;;;;;12.20;11.17;;;;;;;;;;5113706;28;20464;-68
2021/06/26 11:09:06;;;;;;;15.07;13.73;;;;;;;;;;5117463;28;20842;-69
2021/06/26 11:11:34;;;;;;;22.83;20.60;;;;;;;;;;5117405;28;20443;-68
2021/06/26 11:14:12;;;;;;;14.50;13.00;;;;;;;;;;5117352;28;20852;-68
2021/06/26 11:16:40;;;;;;;15.50;13.90;;;;;;;;;;5116144;28;20488;-69
2021/06/26 11:19:09;;;;;;;15.43;13.40;;;;;;;;;;5117300;28;20288;-69
2021/06/26 11:21:41;;;;;;;16.17;14.50;;;;;;;;;;5117623;28;20501;-69
2021/06/26 11:24:09;;;;;;;15.80;13.13;;;;;;;;;;5117316;28;20574;-69
2021/06/26 11:26:45;;;;;;;18.80;13.93;;;;;;;;;;5116917;28;20529;-69
2021/06/26 11:29:22;;;;;;;15.57;13.87;;;;;;;;;;5117034;28;20430;-69
2021/06/26 11:31:49;;;;;;;15.80;11.90;;;;;;;;;;5133473;27;20472;-68
2021/06/26 11:34:18;;;;;;;14.17;12.87;;;;;;;;;;5137603;27;20522;-69
2021/06/26 11:36:54;;;;;;;14.87;13.47;;;;;;;;;;5137498;27;20437;-69
2021/06/26 11:39:22;;;;;;;14.63;13.00;;;;;;;;;;5137213;27;20418;-69
2021/06/26 11:41:49;;;;;;;15.90;14.53;;;;;;;;;;5137425;27;20473;-68
2021/06/26 11:44:16;;;;;;;12.83;11.53;;;;;;;;;;5137009;27;20612;-68
2021/06/26 11:46:43;;;;;;;13.93;12.63;;;;;;;;;;5126133;22;20578;-66
2021/06/26 11:49:11;;;;;;;14.03;12.67;;;;;;;;;;5075944;28;20500;-66
2021/06/26 11:51:40;;;;;;;27.63;23.43;;;;;;;;;;5075998;28;20447;-66
2021/06/26 11:54:07;;;;;;;15.97;14.47;;;;;;;;;;5076071;28;20467;-67
2021/06/26 11:56:35;;;;;;;16.73;15.10;;;;;;;;;;5075539;28;20449;-66
2021/06/26 11:59:02;;;;;;;14.43;11.93;;;;;;;;;;5075482;28;20927;-67
2021/06/26 12:01:31;;;;;;;15.00;13.50;;;;;;;;;;5075762;28;20479;-66
2021/06/26 12:04:02;;;;;;;15.43;13.40;;;;;;;;;;5075755;28;20498;-67
2021/06/26 12:06:31;;;;;;;14.87;13.47;;;;;;;;;;5075973;28;20401;-66
2021/06/26 12:09:00;;;;;;;15.97;12.63;;;;;;;;;;5075921;28;20805;-66
2021/06/26 12:11:28;;;;;;;14.60;13.20;;;;;;;;;;5075725;28;20489;-66
2021/06/26 12:13:57;;;;;;;13.10;11.80;;;;;;;;;;5075538;28;20505;-66
2021/06/26 12:16:25;;;;;;;13.57;12.10;;;;;;;;;;5075217;28;20557;-67
2021/06/26 12:18:53;;;;;;;13.17;11.97;;;;;;;;;;5074294;28;20524;-66
2021/06/26 12:21:21;;;;;;;13.47;12.17;;;;;;;;;;5075342;28;20483;-66
2021/06/26 12:23:49;;;;;;;13.23;11.87;;;;;;;;;;5075393;28;20861;-66
2021/06/26 12:26:19;;;;;;;12.53;11.20;;;;;;;;;;5075355;28;20472;-67
2021/06/26 12:28:47;;;;;;;12.77;11.47;;;;;;;;;;5075270;28;20937;-66
2021/06/26 12:31:14;;;;;;;10.80;9.70;;;;;;;;;;5075099;28;20448;-66
2021/06/26 12:33:43;;;;;;;14.07;12.60;;;;;;;;;;5075224;28;20485;-66
2021/06/26 12:36:14;;;;;;;13.13;10.30;;;;;;;;;;5075229;28;20445;-67
2021/06/26 12:38:41;;;;;;;10.70;9.83;;;;;;;;;;5075779;28;20443;-66
2021/06/26 12:41:19;;;;;;;11.30;10.13;;;;;;;;;;5075305;28;20477;-67
2021/06/26 12:43:46;;;;;;;11.00;9.90;;;;;;;;;;5075331;28;20515;-67
2021/06/26 12:46:14;;;;;;;9.00;8.27;;;;;;;;;;5074378;28;21006;-66
2021/06/26 12:48:45;;;;;;;10.83;9.53;;;;;;;;;;5075200;28;20533;-66
2021/06/26 12:51:14;;;;;;;13.23;9.10;;;;;;;;;;5075118;28;20456;-66
2021/06/26 12:53:42;;;;;;;10.73;9.73;;;;;;;;;;5074741;28;20958;-66
2021/06/26 12:56:10;;;;;;;12.00;9.87;;;;;;;;;;5074860;28;20986;-66
2021/06/26 12:58:39;;;;;;;12.23;9.63;;;;;;;;;;5074780;28;20449;-66
2021/06/26 13:01:06;;;;;;;11.33;10.27;;;;;;;;;;5074481;28;20477;-66
2021/06/26 13:03:33;;;;;;;10.70;9.80;;;;;;;;;;5074203;28;20472;-66
2021/06/26 13:06:11;;;;;;;10.67;9.50;;;;;;;;;;5074808;28;20792;-66
2021/06/26 13:08:49;;;;;;;11.83;10.57;;;;;;;;;;5074244;28;20904;-66
2021/06/26 13:11:17;;;;;;;9.83;9.03;;;;;;;;;;5074207;28;20442;-66
2021/06/26 13:13:45;;;;;;;11.17;10.07;;;;;;;;;;5074075;28;20510;-66
2021/06/26 13:16:13;;;;;;;10.53;8.93;;;;;;;;;;5074929;28;20453;-66
2021/06/26 13:18:40;;;;;;;10.80;9.80;;;;;;;;;;5074364;28;20443;-66
2021/06/26 13:21:11;;;;;;;10.43;9.23;;;;;;;;;;5073883;28;20540;-66
2021/06/26 13:23:38;;;;;;;10.70;9.77;;;;;;;;;;5075094;28;20419;-66
2021/06/26 13:26:07;;;;;;;9.77;8.90;;;;;;;;;;5074192;28;20416;-67
2021/06/26 13:28:34;;;;;;;10.00;9.10;;;;;;;;;;5074218;28;20528;-66
2021/06/26 13:31:03;;;;;;;11.30;10.30;;;;;;;;;;5072836;28;20518;-66
2021/06/26 13:33:30;;;;;;;10.83;9.73;;;;;;;;;;5073799;28;20940;-66
2021/06/26 13:35:57;;;;;;;10.23;9.40;;;;;;;;;;5073700;28;20444;-66
2021/06/26 13:38:24;;;;;;;12.43;11.40;;;;;;;;;;5073625;28;20525;-67
2021/06/26 13:40:51;;;;;;;10.17;9.37;;;;;;;;;;5073865;28;20456;-66
2021/06/26 13:43:19;;;;;;;10.13;9.33;;;;;;;;;;5074443;28;20547;-66
2021/06/26 13:45:46;;;;;;;10.47;9.40;;;;;;;;;;5073254;28;20420;-66
2021/06/26 13:48:15;;;;;;;9.93;9.03;;;;;;;;;;5073550;28;20482;-66
2021/06/26 13:50:42;;;;;;;12.60;9.40;;;;;;;;;;5073834;28;20808;-66
2021/06/26 13:53:09;;;;;;;9.30;8.60;;;;;;;;;;5073526;28;20533;-66
2021/06/26 13:55:36;;;;;;;8.30;7.50;;;;;;;;;;5074087;28;20420;-66
2021/06/26 13:58:04;;;;;;;11.87;10.87;;;;;;;;;;5073454;28;20443;-64
2021/06/26 14:00:31;;;;;;;12.10;11.03;;;;;;;;;;5073468;28;20530;-66
2021/06/26 14:02:58;;;;;;;17.00;15.37;;;;;;;;;;5073293;28;20450;-66
2021/06/26 14:05:28;;;;;;;14.60;13.23;;;;;;;;;;5074035;28;20449;-66
2021/06/26 14:07:55;;;;;;;13.97;12.70;;;;;;;;;;5073286;28;20419;-66
2021/06/26 14:10:22;;;;;;;14.27;12.97;;;;;;;;;;5073175;28;20450;-66
2021/06/26 14:12:49;;;;;;;14.60;13.10;;;;;;;;;;5073412;28;20415;-66
2021/06/26 14:15:17;;;;;;;14.33;12.97;;;;;;;;;;5073167;28;20934;-66
2021/06/26 14:17:44;;;;;;;13.17;11.77;;;;;;;;;;5073822;28;20454;-67
2021/06/26 14:20:11;;;;;;;14.27;12.53;;;;;;;;;;5073407;28;20494;-66
2021/06/26 14:22:40;;;;;;;12.87;11.57;;;;;;;;;;5073022;28;20569;-67
2021/06/26 14:25:08;;;;;;;12.43;11.23;;;;;;;;;;5073373;28;20536;-66